createdAt,value
2018-09-24T00:02:17.838Z,21.74
2018-09-24T00:04:46.162Z,21.73
2018-09-24T00:07:14.454Z,21.73
2018-09-24T00:09:42.830Z,21.72
2018-09-24T00:12:11.150Z,21.71
2018-09-24T00:14:39.519Z,21.70
2018-09-24T00:17:07.830Z,21.70
2018-09-24T00:19:36.159Z,21.69
2018-09-24T00:22:04.555Z,21.67
2018-09-24T00:24:32.869Z,21.68
2018-09-24T00:27:01.169Z,21.67
2018-09-24T00:29:29.583Z,21.67
2018-09-24T00:31:57.882Z,21.66
2018-09-24T00:34:26.221Z,21.65
2018-09-24T00:36:54.556Z,21.65
2018-09-24T00:39:23.723Z,21.66
2018-09-24T00:41:52.014Z,21.64
2018-09-24T00:44:20.333Z,21.64
2018-09-24T00:46:48.772Z,21.63
2018-09-24T00:49:17.130Z,21.64
2018-09-24T00:51:45.454Z,21.62
2018-09-24T00:54:13.798Z,21.62
2018-09-24T00:56:42.118Z,21.61
2018-09-24T00:59:10.522Z,21.61
2018-09-24T01:01:38.940Z,21.61
2018-09-24T01:04:07.557Z,21.60
2018-09-24T01:06:35.938Z,21.59
2018-09-24T01:09:05.039Z,21.59
2018-09-24T01:11:33.377Z,21.59
2018-09-24T01:14:01.698Z,21.59
2018-09-24T01:16:30.085Z,21.58
2018-09-24T01:18:58.506Z,21.58
2018-09-24T01:21:26.818Z,21.57
2018-09-24T01:23:55.133Z,21.57
2018-09-24T01:26:23.474Z,21.56
2018-09-24T01:28:51.779Z,21.57
2018-09-24T01:31:20.116Z,21.56
2018-09-24T01:33:48.457Z,21.55
2018-09-24T01:36:16.807Z,21.54
2018-09-24T01:38:45.105Z,21.54
2018-09-24T01:41:13.416Z,21.54
2018-09-24T01:43:41.854Z,21.55
2018-09-24T01:46:10.234Z,21.55
2018-09-24T01:48:38.618Z,21.55
2018-09-24T01:51:06.986Z,21.54
2018-09-24T01:53:35.322Z,21.53
2018-09-24T01:56:03.647Z,21.53
2018-09-24T01:58:36.432Z,21.53
2018-09-24T02:01:05.334Z,21.52
2018-09-24T02:03:34.666Z,21.53
2018-09-24T02:06:03.747Z,21.54
2018-09-24T02:08:32.114Z,21.54
2018-09-24T02:11:00.562Z,21.53
2018-09-24T02:13:28.948Z,21.53
2018-09-24T02:15:57.246Z,21.54
2018-09-24T02:18:25.543Z,21.53
2018-09-24T02:20:53.926Z,21.53
2018-09-24T02:23:22.235Z,21.51
2018-09-24T02:25:50.523Z,21.51
2018-09-24T02:28:18.823Z,21.51
2018-09-24T02:30:47.370Z,21.51
2018-09-24T02:33:15.647Z,21.51
2018-09-24T02:35:49.208Z,21.52
2018-09-24T02:38:19.330Z,21.51
2018-09-24T02:40:47.706Z,21.51
2018-09-24T02:43:25.994Z,21.50
2018-09-24T02:45:55.415Z,21.49
2018-09-24T02:48:23.758Z,21.48
2018-09-24T02:50:52.070Z,21.49
2018-09-24T02:53:20.452Z,21.49
2018-09-24T02:55:48.730Z,21.49
2018-09-24T02:58:18.917Z,21.50
2018-09-24T03:00:47.339Z,21.49
2018-09-24T03:03:15.643Z,21.49
2018-09-24T03:05:44.579Z,21.48
2018-09-24T03:08:13.830Z,21.48
2018-09-24T03:10:42.463Z,21.46
2018-09-24T03:13:10.766Z,21.47
2018-09-24T03:15:40.659Z,21.47
2018-09-24T03:18:09.624Z,21.46
2018-09-24T03:20:42.878Z,21.47
2018-09-24T03:23:11.303Z,21.47
2018-09-24T03:25:40.003Z,21.45
2018-09-24T03:28:08.326Z,21.45
2018-09-24T03:30:38.793Z,21.45
2018-09-24T03:33:07.104Z,21.45
2018-09-24T03:35:36.250Z,21.44
2018-09-24T03:38:04.570Z,21.44
2018-09-24T03:40:33.026Z,21.43
2018-09-24T03:43:01.427Z,21.43
2018-09-24T03:45:30.389Z,21.42
2018-09-24T03:47:58.905Z,21.41
2018-09-24T03:50:27.395Z,21.41
2018-09-24T03:52:55.674Z,21.40
2018-09-24T03:55:23.998Z,21.41
2018-09-24T03:57:52.306Z,21.40
2018-09-24T04:00:20.580Z,21.40
2018-09-24T04:02:48.923Z,21.39
2018-09-24T04:05:22.638Z,21.38
2018-09-24T04:07:56.199Z,21.39
2018-09-24T04:10:29.918Z,21.38
2018-09-24T04:13:03.410Z,21.36
2018-09-24T04:15:37.079Z,21.34
2018-09-24T04:18:10.733Z,21.34
2018-09-24T04:20:44.709Z,21.33
2018-09-24T04:23:18.370Z,21.31
2018-09-24T04:25:52.049Z,21.30
2018-09-24T04:28:25.726Z,21.30
2018-09-24T04:30:59.527Z,21.30
2018-09-24T04:33:33.114Z,21.29
2018-09-24T04:36:06.640Z,21.28
2018-09-24T04:38:40.242Z,21.28
2018-09-24T04:41:13.842Z,21.26
2018-09-24T04:43:47.646Z,21.28
2018-09-24T04:46:21.323Z,21.28
2018-09-24T04:48:55.083Z,21.28
2018-09-24T04:51:28.758Z,21.27
2018-09-24T04:54:02.226Z,21.26
2018-09-24T04:56:35.974Z,21.25
2018-09-24T04:59:09.649Z,21.25
2018-09-24T05:01:43.314Z,21.25
2018-09-24T05:04:16.949Z,21.24
2018-09-24T05:06:50.524Z,21.23
2018-09-24T05:09:24.149Z,21.24
2018-09-24T05:11:57.644Z,21.22
2018-09-24T05:14:31.159Z,21.21
2018-09-24T05:17:04.894Z,21.21
2018-09-24T05:19:38.442Z,21.21
2018-09-24T05:22:11.998Z,21.19
2018-09-24T05:24:45.480Z,21.18
2018-09-24T05:27:19.033Z,21.19
2018-09-24T05:29:52.539Z,21.18
2018-09-24T05:32:26.152Z,21.18
2018-09-24T05:34:59.838Z,21.15
2018-09-24T05:37:33.365Z,21.16
2018-09-24T05:40:07.278Z,21.16
2018-09-24T05:42:40.734Z,21.16
2018-09-24T05:45:14.183Z,21.14
2018-09-24T05:47:47.804Z,21.13
2018-09-24T05:50:22.294Z,21.13
2018-09-24T05:52:55.883Z,21.12
2018-09-24T05:55:29.423Z,21.12
2018-09-24T05:58:03.158Z,21.15
2018-09-24T06:00:36.560Z,21.16
2018-09-24T06:03:10.075Z,21.18
2018-09-24T06:05:43.566Z,21.18
2018-09-24T06:08:17.103Z,21.18
2018-09-24T06:10:50.800Z,21.20
2018-09-24T06:13:24.633Z,21.19
2018-09-24T06:15:58.125Z,21.21
2018-09-24T06:18:31.638Z,21.23
2018-09-24T06:21:05.270Z,21.27
2018-09-24T06:23:38.695Z,21.33
2018-09-24T06:26:12.394Z,21.40
2018-09-24T06:28:45.782Z,21.46
2018-09-24T06:31:19.481Z,21.51
2018-09-24T06:33:53.215Z,21.56
2018-09-24T06:36:26.570Z,21.64
2018-09-24T06:39:00.098Z,21.70
2018-09-24T06:41:33.646Z,21.74
2018-09-24T06:44:07.406Z,21.78
2018-09-24T06:46:41.010Z,21.81
2018-09-24T06:49:14.616Z,21.86
2018-09-24T06:51:48.158Z,21.89
2018-09-24T06:54:21.843Z,21.93
2018-09-24T06:56:55.476Z,21.97
2018-09-24T06:59:29.164Z,22.00
2018-09-24T07:02:02.811Z,22.05
2018-09-24T07:04:36.289Z,22.10
2018-09-24T07:07:09.919Z,22.14
2018-09-24T07:09:43.718Z,22.17
2018-09-24T07:12:17.231Z,22.21
2018-09-24T07:14:50.793Z,22.25
2018-09-24T07:17:24.298Z,22.29
2018-09-24T07:19:58.806Z,22.34
2018-09-24T07:22:32.388Z,22.38
2018-09-24T07:25:05.915Z,22.41
2018-09-24T07:27:39.570Z,22.45
2018-09-24T07:30:13.115Z,22.49
2018-09-24T07:32:46.701Z,22.54
2018-09-24T07:35:20.216Z,22.57
2018-09-24T07:37:53.787Z,22.61
2018-09-24T07:40:27.194Z,22.65
2018-09-24T07:43:00.724Z,22.69
2018-09-24T07:45:34.331Z,22.74
2018-09-24T07:48:08.027Z,22.78
2018-09-24T07:50:41.515Z,22.83
2018-09-24T07:53:15.271Z,22.85
2018-09-24T07:55:48.931Z,22.89
2018-09-24T07:58:22.515Z,22.94
2018-09-24T08:00:55.958Z,22.97
2018-09-24T08:03:29.547Z,22.99
2018-09-24T08:06:03.247Z,23.02
2018-09-24T08:08:36.911Z,23.04
2018-09-24T08:11:10.587Z,23.10
2018-09-24T08:13:44.091Z,23.17
2018-09-24T08:16:17.767Z,23.29
2018-09-24T08:18:51.465Z,23.35
2018-09-24T08:21:24.899Z,23.36
2018-09-24T08:23:58.403Z,23.36
2018-09-24T08:26:31.807Z,23.41
2018-09-24T08:29:05.362Z,23.43
2018-09-24T08:31:38.914Z,23.43
2018-09-24T08:34:12.674Z,23.42
2018-09-24T08:36:46.234Z,23.41
2018-09-24T08:39:19.758Z,23.42
2018-09-24T08:41:53.355Z,23.47
2018-09-24T08:44:26.890Z,23.53
2018-09-24T08:47:00.439Z,23.59
2018-09-24T08:49:34.150Z,23.54
2018-09-24T08:52:07.602Z,23.58
2018-09-24T08:54:41.230Z,23.62
2018-09-24T08:57:14.958Z,23.68
2018-09-24T08:59:48.471Z,23.80
2018-09-24T09:02:22.042Z,23.83
2018-09-24T09:04:55.647Z,23.86
2018-09-24T09:07:29.271Z,23.89
2018-09-24T09:10:02.831Z,23.97
2018-09-24T09:12:37.258Z,24.04
2018-09-24T09:15:10.972Z,24.06
2018-09-24T09:17:44.446Z,24.09
2018-09-24T09:20:17.998Z,24.19
2018-09-24T09:22:51.625Z,24.28
2018-09-24T09:25:25.167Z,24.31
2018-09-24T09:27:58.784Z,24.32
2018-09-24T09:30:32.490Z,24.36
2018-09-24T09:33:06.066Z,24.45
2018-09-24T09:35:39.635Z,24.55
2018-09-24T09:38:13.327Z,24.67
2018-09-24T09:40:46.991Z,24.83
2018-09-24T09:43:20.588Z,24.99
2018-09-24T09:45:54.118Z,25.10
2018-09-24T09:48:27.771Z,25.21
2018-09-24T09:51:01.391Z,25.20
2018-09-24T09:53:35.010Z,25.18
2018-09-24T09:56:08.462Z,25.11
2018-09-24T09:58:41.962Z,25.21
2018-09-24T10:01:15.466Z,25.22
2018-09-24T10:03:48.975Z,25.10
2018-09-24T10:06:22.707Z,25.11
2018-09-24T10:08:56.111Z,25.27
2018-09-24T10:11:29.662Z,25.20
2018-09-24T10:14:03.358Z,25.14
2018-09-24T10:16:37.003Z,24.94
2018-09-24T10:19:10.725Z,24.72
2018-09-24T10:21:44.422Z,24.60
2018-09-24T10:24:17.886Z,24.51
2018-09-24T10:26:51.468Z,24.82
2018-09-24T10:29:25.114Z,25.67
2018-09-24T10:31:58.831Z,26.33
2018-09-24T10:34:32.542Z,26.17
2018-09-24T10:37:06.087Z,25.83
2018-09-24T10:39:39.798Z,25.48
2018-09-24T10:42:14.018Z,25.13
2018-09-24T10:44:47.591Z,24.86
2018-09-24T10:47:21.103Z,24.83
2018-09-24T10:49:54.707Z,25.73
2018-09-24T10:52:28.434Z,25.52
2018-09-24T10:55:02.114Z,25.17
2018-09-24T10:57:35.837Z,24.88
2018-09-24T11:00:09.936Z,24.72
2018-09-24T11:02:43.726Z,26.16
2018-09-24T11:05:17.626Z,27.20
2018-09-24T11:07:51.319Z,26.61
2018-09-24T11:10:25.352Z,26.47
2018-09-24T11:12:58.949Z,25.73
2018-09-24T11:15:32.773Z,25.19
2018-09-24T11:18:13.528Z,24.89
2018-09-24T11:20:47.078Z,24.71
2018-09-24T11:23:21.088Z,24.60
2018-09-24T11:25:54.735Z,24.53
2018-09-24T11:28:28.387Z,24.47
2018-09-24T11:31:01.929Z,24.39
2018-09-24T11:33:35.705Z,24.33
2018-09-24T11:36:09.351Z,24.29
2018-09-24T11:38:43.126Z,24.25
2018-09-24T11:41:16.775Z,24.25
2018-09-24T11:43:50.325Z,24.25
2018-09-24T11:46:23.988Z,24.30
2018-09-24T11:48:57.594Z,24.24
2018-09-24T11:51:31.161Z,24.26
2018-09-24T11:54:04.903Z,24.35
2018-09-24T11:56:38.360Z,24.89
2018-09-24T11:59:11.906Z,25.36
2018-09-24T12:01:45.599Z,25.65
2018-09-24T12:04:19.582Z,25.81
2018-09-24T12:06:53.224Z,25.89
2018-09-24T12:09:26.915Z,25.92
2018-09-24T12:12:00.383Z,25.93
2018-09-24T12:14:34.107Z,25.91
2018-09-24T12:17:07.688Z,25.85
2018-09-24T12:19:41.439Z,25.79
2018-09-24T12:22:15.102Z,25.70
2018-09-24T12:24:48.712Z,25.61
2018-09-24T12:27:22.316Z,25.46
2018-09-24T12:29:55.922Z,25.36
2018-09-24T12:32:29.997Z,25.25
2018-09-24T12:35:03.687Z,25.12
2018-09-24T12:37:37.446Z,25.01
2018-09-24T12:40:11.621Z,24.92
2018-09-24T12:42:45.300Z,24.81
2018-09-24T12:45:19.067Z,24.74
2018-09-24T12:47:53.537Z,24.70
2018-09-24T12:50:27.198Z,24.65
2018-09-24T12:53:01.276Z,24.60
2018-09-24T12:55:34.890Z,24.58
2018-09-24T12:58:08.728Z,24.54
2018-09-24T13:00:42.770Z,24.50
2018-09-24T13:03:16.790Z,24.49
2018-09-24T13:05:50.378Z,24.48
2018-09-24T13:08:24.263Z,24.50
2018-09-24T13:10:58.136Z,24.48
2018-09-24T13:13:32.015Z,24.46
2018-09-24T13:16:05.685Z,24.45
2018-09-24T13:18:39.406Z,24.44
2018-09-24T13:21:13.910Z,24.39
2018-09-24T13:23:47.806Z,24.32
2018-09-24T13:26:21.361Z,24.29
2018-09-24T13:28:55.066Z,24.30
2018-09-24T13:31:29.163Z,24.27
2018-09-24T13:34:02.799Z,24.24
2018-09-24T13:36:36.679Z,24.21
2018-09-24T13:39:13.658Z,24.17
2018-09-24T13:41:47.795Z,24.13
2018-09-24T13:44:21.462Z,24.11
2018-09-24T13:46:55.806Z,24.12
2018-09-24T13:49:29.503Z,24.14
2018-09-24T13:52:03.401Z,24.15
2018-09-24T13:54:37.177Z,24.14
2018-09-24T13:57:11.494Z,24.19
2018-09-24T13:59:45.362Z,24.20
2018-09-24T14:02:19.279Z,24.17
2018-09-24T14:04:53.570Z,24.18
2018-09-24T14:07:27.202Z,24.18
2018-09-24T14:10:00.917Z,24.17
2018-09-24T14:12:34.551Z,24.16
2018-09-24T14:15:08.036Z,24.13
2018-09-24T14:17:41.972Z,24.09
2018-09-24T14:20:15.792Z,24.06
2018-09-24T14:22:49.345Z,24.07
2018-09-24T14:25:23.111Z,24.09
2018-09-24T14:27:56.518Z,24.08
2018-09-24T14:30:30.121Z,24.08
2018-09-24T14:33:03.902Z,24.09
2018-09-24T14:35:37.551Z,24.05
2018-09-24T14:38:11.634Z,23.99
2018-09-24T14:40:45.386Z,23.93
2018-09-24T14:43:19.171Z,23.91
2018-09-24T14:45:52.945Z,23.88
2018-09-24T14:48:26.731Z,23.86
2018-09-24T14:51:01.550Z,23.84
2018-09-24T14:53:35.559Z,23.81
2018-09-24T14:56:09.270Z,23.78
2018-09-24T14:58:42.966Z,23.78
2018-09-24T15:01:17.057Z,23.75
2018-09-24T15:03:50.956Z,23.74
2018-09-24T15:06:24.874Z,23.72
2018-09-24T15:08:58.569Z,23.71
2018-09-24T15:11:32.814Z,23.71
2018-09-24T15:14:06.551Z,23.70
2018-09-24T15:16:40.320Z,23.72
2018-09-24T15:19:14.213Z,23.71
2018-09-24T15:21:48.234Z,23.71
2018-09-24T15:24:22.185Z,23.72
2018-09-24T15:26:56.007Z,23.69
2018-09-24T15:29:29.891Z,23.66
2018-09-24T15:37:14.060Z,23.54
2018-09-24T15:39:47.739Z,23.52
2018-09-24T15:42:21.627Z,23.48
2018-09-24T15:44:55.819Z,23.47
2018-09-24T15:47:29.654Z,23.48
2018-09-24T15:50:03.376Z,23.46
2018-09-24T15:52:36.963Z,23.46
2018-09-24T15:55:10.823Z,23.45
2018-09-24T15:57:44.731Z,23.43
2018-09-24T16:00:18.571Z,23.43
2018-09-24T16:02:52.307Z,23.44
2018-09-24T16:05:26.299Z,23.46
2018-09-24T16:08:00.211Z,23.46
2018-09-24T16:10:33.834Z,23.47
2018-09-24T16:13:07.394Z,23.46
2018-09-24T16:15:40.793Z,23.53
2018-09-24T16:18:14.585Z,23.75
2018-09-24T16:20:48.063Z,23.95
2018-09-24T16:23:21.786Z,23.89
2018-09-24T16:25:55.438Z,23.77
2018-09-24T16:28:29.278Z,23.66
2018-09-24T16:31:03.027Z,23.59
2018-09-24T16:33:36.737Z,23.52
2018-09-24T16:36:10.495Z,23.46
2018-09-24T16:38:44.191Z,23.41
2018-09-24T16:41:17.894Z,23.37
2018-09-24T16:43:51.767Z,23.33
2018-09-24T16:46:25.254Z,23.31
2018-09-24T16:48:58.866Z,23.28
2018-09-24T16:51:32.467Z,23.24
2018-09-24T16:54:06.366Z,23.22
2018-09-24T16:56:40.859Z,23.23
2018-09-24T16:59:14.791Z,23.21
2018-09-24T17:01:48.776Z,23.20
2018-09-24T17:04:22.453Z,23.21
2018-09-24T17:06:55.955Z,23.19
2018-09-24T17:09:29.591Z,23.19
2018-09-24T17:12:03.381Z,23.17
2018-09-24T17:14:37.291Z,23.12
2018-09-24T17:17:11.145Z,23.13
2018-09-24T17:19:44.754Z,23.12
2018-09-24T17:22:18.505Z,23.10
2018-09-24T17:24:52.219Z,23.08
2018-09-24T17:27:25.715Z,23.07
2018-09-24T17:29:59.376Z,23.05
2018-09-24T17:32:33.224Z,23.02
2018-09-24T17:35:06.725Z,22.99
2018-09-24T17:37:40.162Z,22.95
2018-09-24T17:40:13.870Z,22.92
2018-09-24T17:42:47.590Z,22.91
2018-09-24T17:45:21.151Z,22.87
2018-09-24T17:47:54.642Z,22.88
2018-09-24T17:50:28.282Z,22.88
2018-09-24T17:53:01.895Z,22.89
2018-09-24T17:55:35.446Z,22.92
2018-09-24T17:58:09.085Z,22.95
2018-09-24T18:00:42.646Z,22.98
2018-09-24T18:03:16.247Z,23.03
2018-09-24T18:05:49.826Z,23.07
2018-09-24T18:08:23.478Z,23.11
2018-09-24T18:10:56.962Z,23.19
2018-09-24T18:13:30.490Z,23.28
2018-09-24T18:16:04.171Z,23.38
2018-09-24T18:18:37.683Z,23.48
2018-09-24T18:21:11.506Z,23.58
2018-09-24T18:23:46.111Z,23.68
2018-09-24T18:26:19.836Z,23.74
2018-09-24T18:28:53.463Z,23.81
2018-09-24T18:31:26.921Z,23.86
2018-09-24T18:34:00.499Z,23.92
2018-09-24T18:36:33.937Z,23.97
2018-09-24T18:39:07.482Z,24.02
2018-09-24T18:41:41.204Z,24.05
2018-09-24T18:44:14.782Z,24.08
2018-09-24T18:46:48.327Z,24.11
2018-09-24T18:49:21.902Z,24.13
2018-09-24T18:51:55.535Z,24.15
2018-09-24T18:54:29.083Z,24.16
2018-09-24T18:57:02.791Z,24.17
2018-09-24T18:59:36.390Z,24.18
2018-09-24T19:02:10.108Z,24.19
2018-09-24T19:04:43.786Z,24.21
2018-09-24T19:07:17.546Z,24.21
2018-09-24T19:09:51.341Z,24.22
2018-09-24T19:12:25.113Z,24.23
2018-09-24T19:14:58.539Z,24.24
2018-09-24T19:17:32.141Z,24.24
2018-09-24T19:20:05.847Z,24.24
2018-09-24T19:22:39.390Z,24.24
2018-09-24T19:25:12.927Z,24.24
2018-09-24T19:27:46.458Z,24.24
2018-09-24T19:30:20.539Z,24.25
2018-09-24T19:32:54.259Z,24.25
2018-09-24T19:35:27.872Z,24.25
2018-09-24T19:38:01.571Z,24.25
2018-09-24T19:40:35.179Z,24.24
2018-09-24T19:43:08.642Z,24.25
2018-09-24T19:45:42.439Z,24.24
2018-09-24T19:48:15.864Z,24.23
2018-09-24T19:50:49.576Z,24.21
2018-09-24T19:53:23.271Z,24.19
2018-09-24T19:55:56.860Z,24.20
2018-09-24T19:58:30.363Z,24.19
2018-09-24T20:01:03.982Z,24.18
2018-09-24T20:03:37.345Z,24.17
2018-09-24T20:06:11.074Z,24.16
2018-09-24T20:08:44.688Z,24.17
2018-09-24T20:11:18.493Z,24.16
2018-09-24T20:13:52.110Z,24.15
2018-09-24T20:16:25.792Z,24.14
2018-09-24T20:18:59.443Z,24.12
2018-09-24T20:21:32.942Z,24.10
2018-09-24T20:24:06.575Z,24.08
2018-09-24T20:26:40.068Z,24.08
2018-09-24T20:29:13.783Z,24.05
2018-09-24T20:31:47.622Z,24.04
2018-09-24T20:34:21.419Z,24.04
2018-09-24T20:36:55.427Z,23.99
2018-09-24T20:39:29.151Z,23.98
2018-09-24T20:42:02.836Z,23.95
2018-09-24T20:44:36.380Z,23.92
2018-09-24T20:47:10.270Z,23.92
2018-09-24T20:49:43.992Z,23.88
2018-09-24T20:52:17.818Z,23.87
2018-09-24T20:54:51.172Z,23.86
2018-09-24T20:57:24.618Z,23.83
2018-09-24T20:59:58.091Z,23.81
2018-09-24T21:02:31.846Z,23.79
2018-09-24T21:05:05.519Z,23.77
2018-09-24T21:07:39.077Z,23.75
2018-09-24T21:10:12.751Z,23.72
2018-09-24T21:12:46.539Z,23.71
2018-09-24T21:15:20.102Z,23.67
2018-09-24T21:17:53.586Z,23.64
2018-09-24T21:20:27.218Z,23.62
2018-09-24T21:23:00.858Z,23.60
2018-09-24T21:25:34.671Z,23.57
2018-09-24T21:28:08.277Z,23.55
2018-09-24T21:30:41.826Z,23.53
2018-09-24T21:33:15.422Z,23.49
2018-09-24T21:35:48.840Z,23.48
2018-09-24T21:38:22.675Z,23.45
2018-09-24T21:40:56.350Z,23.42
2018-09-24T21:43:30.890Z,23.41
2018-09-24T21:46:04.715Z,23.38
2018-09-24T21:48:38.270Z,23.36
2018-09-24T21:51:12.101Z,23.33
2018-09-24T21:53:45.770Z,23.31
2018-09-24T21:56:19.639Z,23.28
2018-09-24T21:58:53.319Z,23.26
2018-09-24T22:01:27.022Z,23.24
2018-09-24T22:04:00.699Z,23.23
2018-09-24T22:06:34.334Z,23.19
2018-09-24T22:09:07.907Z,23.18
2018-09-24T22:11:41.513Z,23.16
2018-09-24T22:14:14.919Z,23.13
2018-09-24T22:16:48.526Z,23.12
2018-09-24T22:19:22.042Z,23.10
2018-09-24T22:21:55.659Z,23.08
2018-09-24T22:24:29.233Z,23.06
2018-09-24T22:27:02.738Z,23.04
2018-09-24T22:29:36.770Z,23.03
2018-09-24T22:32:10.673Z,23.01
2018-09-24T22:34:44.423Z,22.98
2018-09-24T22:37:18.126Z,22.95
2018-09-24T22:39:51.759Z,22.94
2018-09-24T22:42:25.412Z,22.91
2018-09-24T22:44:58.962Z,22.89
2018-09-24T22:47:32.530Z,22.88
2018-09-24T22:50:06.021Z,22.85
2018-09-24T22:52:39.607Z,22.83
2018-09-24T22:55:13.214Z,22.82
2018-09-24T22:57:46.790Z,22.79
2018-09-24T23:00:20.543Z,22.77
2018-09-24T23:02:54.205Z,22.77
2018-09-24T23:05:27.821Z,22.74
2018-09-24T23:08:01.232Z,22.72
2018-09-24T23:10:34.962Z,22.71
2018-09-24T23:13:08.615Z,22.68
2018-09-24T23:15:42.386Z,22.65
2018-09-24T23:18:16.047Z,22.63
2018-09-24T23:20:49.735Z,22.62
2018-09-24T23:23:23.571Z,22.60
2018-09-24T23:25:57.037Z,22.58
2018-09-24T23:28:30.539Z,22.56
2018-09-24T23:31:04.119Z,22.54
2018-09-24T23:33:37.632Z,22.51
2018-09-24T23:36:11.649Z,22.50
2018-09-24T23:38:45.235Z,22.48
2018-09-24T23:41:18.863Z,22.46
2018-09-24T23:43:52.467Z,22.45
2018-09-24T23:46:26.050Z,22.42
2018-09-24T23:48:59.624Z,22.39
2018-09-24T23:51:33.098Z,22.38
2018-09-24T23:54:06.654Z,22.36
2018-09-24T23:56:40.259Z,22.36
2018-09-24T23:59:13.874Z,22.34
